createdAt,value
2022-09-23T00:45:20.075Z,101939.72
2022-09-23T00:47:48.729Z,101942.53
2022-09-23T00:50:18.334Z,101945.34
2022-09-23T00:52:46.097Z,101943.66
2022-09-23T00:55:14.511Z,101938.91
2022-09-23T00:57:42.046Z,101934.13
2022-09-23T01:45:40.510Z,101905.63
2022-09-23T01:48:10.461Z,101908.44
2022-09-23T01:50:55.511Z,101902.84
2022-09-23T01:53:23.981Z,101902.84
2022-09-23T01:55:52.002Z,101904.00
2022-09-23T01:58:20.621Z,101911.22
2022-09-23T02:47:38.190Z,101849.16
2022-09-23T02:50:05.969Z,101846.38
2022-09-23T02:52:33.486Z,101842.41
2022-09-23T02:55:00.996Z,101843.56
2022-09-23T02:57:28.612Z,101846.38
2022-09-23T02:59:56.251Z,101837.97
2022-09-23T04:30:30.266Z,101781.81
2022-09-23T04:32:58.337Z,101781.81
2022-09-23T04:35:26.289Z,101782.63
2022-09-23T04:37:54.013Z,101775.91
2022-09-23T04:40:21.914Z,101777.03
2022-09-23T04:42:50.400Z,101779.03
2022-09-23T04:45:18.243Z,101775.41
2022-09-23T04:47:47.149Z,101781.00
2022-09-23T04:50:15.123Z,101789.41
2022-09-23T04:52:43.680Z,101786.59
2022-09-23T04:55:11.462Z,101781.00
2022-09-23T04:57:39.241Z,101785.78
2022-09-23T05:00:07.801Z,101781.00
2022-09-23T05:02:36.878Z,101780.19
2022-09-23T05:05:06.359Z,101779.84
2022-09-23T05:07:34.072Z,101776.56
2022-09-23T05:10:01.564Z,101774.59
2022-09-23T05:12:29.038Z,101773.78
2022-09-23T05:14:56.563Z,101781.00
2022-09-23T05:17:24.025Z,101779.38
2022-09-23T05:19:51.610Z,101782.16
2022-09-23T05:22:20.414Z,101775.41
2022-09-23T05:24:47.847Z,101780.19
2022-09-23T05:27:15.315Z,101781.00
2022-09-23T05:29:42.835Z,101786.59
2022-09-23T05:32:10.420Z,101781.00
2022-09-23T05:34:37.874Z,101779.38
2022-09-23T05:37:05.398Z,101783.81
2022-09-23T05:39:34.217Z,101779.38
2022-09-23T05:42:01.696Z,101778.56
2022-09-23T05:44:29.835Z,101780.19
2022-09-23T05:46:57.446Z,101770.97
2022-09-23T05:49:42.483Z,101782.16
2022-09-23T05:52:12.597Z,101780.19
2022-09-23T05:54:41.496Z,101773.78
2022-09-23T05:57:09.118Z,101776.56
2022-09-23T05:59:38.006Z,101779.38
2022-09-23T06:02:05.630Z,101777.75
2022-09-23T06:04:33.137Z,101770.97
2022-09-23T06:07:03.460Z,101779.38
2022-09-23T06:09:36.218Z,101780.53
2022-09-23T06:12:06.333Z,101773.78
2022-09-23T06:14:33.831Z,101772.94
2022-09-23T06:17:01.287Z,101783.34
2022-09-23T06:19:28.722Z,101777.75
2022-09-23T06:21:56.188Z,101777.75
2022-09-23T06:24:28.613Z,101784.16
2022-09-23T06:26:58.438Z,101773.78
2022-09-23T06:29:27.277Z,101772.94
2022-09-23T06:31:54.853Z,101772.13
2022-09-23T06:34:22.428Z,101777.75
2022-09-23T06:36:51.542Z,101785.78
2022-09-23T06:39:19.135Z,101784.97
2022-09-23T06:41:46.659Z,101784.16
2022-09-23T06:44:14.253Z,101788.94
2022-09-23T06:46:43.241Z,101784.16
2022-09-23T06:49:13.444Z,101783.34
2022-09-23T06:51:41.338Z,101784.97
2022-09-23T06:54:09.046Z,101784.16
2022-09-23T06:56:39.521Z,101788.13
2022-09-23T06:59:07.613Z,101787.75
2022-09-23T07:01:35.557Z,101782.16
2022-09-23T07:04:04.644Z,101787.75
2022-09-23T07:06:32.279Z,101783.34
2022-09-23T07:09:00.965Z,101780.19
2022-09-23T07:11:28.446Z,101778.56
2022-09-23T07:13:56.100Z,101780.03
2022-09-23T07:16:23.634Z,101787.75
2022-09-23T07:18:53.363Z,101787.75
2022-09-23T07:21:22.228Z,101779.38
2022-09-23T07:23:50.139Z,101784.16
2022-09-23T07:26:18.037Z,101784.97
2022-09-23T07:28:45.469Z,101786.94
2022-09-23T07:31:13.640Z,101780.53
2022-09-23T07:33:44.163Z,101792.53
2022-09-23T07:36:12.466Z,101788.94
2022-09-23T07:38:45.177Z,101789.75
2022-09-23T07:41:13.497Z,101784.97
2022-09-23T07:43:41.182Z,101774.94
2022-09-23T07:46:09.724Z,101783.34
2022-09-23T07:48:37.293Z,101782.53
2022-09-23T07:51:07.254Z,101784.16
2022-09-23T07:53:34.710Z,101787.75
2022-09-23T07:56:06.521Z,101779.38
2022-09-23T07:58:34.725Z,101779.38
2022-09-23T08:01:02.780Z,101779.38
2022-09-23T08:03:30.337Z,101776.56
2022-09-23T08:06:04.398Z,101782.16
2022-09-23T08:08:31.871Z,101777.75
2022-09-23T08:11:03.208Z,101784.97
2022-09-23T08:13:30.894Z,101784.97
2022-09-23T08:15:58.757Z,101773.78
2022-09-23T08:18:26.338Z,101780.19
2022-09-23T08:20:53.831Z,101775.75
2022-09-23T08:23:21.266Z,101773.78
2022-09-23T08:25:48.752Z,101780.19
2022-09-23T08:28:19.110Z,101772.94
2022-09-23T08:30:48.201Z,101768.16
2022-09-23T08:33:19.648Z,101775.75
2022-09-23T08:35:50.047Z,101764.56
2022-09-23T08:38:17.506Z,101765.38
2022-09-23T08:40:47.302Z,101758.94
2022-09-23T08:43:19.165Z,101756.97
2022-09-23T08:45:46.735Z,101756.97
2022-09-23T08:48:15.770Z,101758.59
2022-09-23T08:50:43.632Z,101751.38
2022-09-23T08:53:14.089Z,101751.38
2022-09-23T08:55:43.099Z,101748.56
2022-09-23T08:58:27.038Z,101751.38
2022-09-23T09:00:59.909Z,101755.00
2022-09-23T09:03:29.847Z,101753.00
2022-09-23T09:05:57.421Z,101750.56
2022-09-23T09:08:26.067Z,101744.97
2022-09-23T09:10:54.450Z,101756.16
2022-09-23T09:13:24.772Z,101751.38
2022-09-23T09:15:55.143Z,101746.94
2022-09-23T09:18:24.144Z,101744.97
2022-09-23T09:20:52.899Z,101740.19
2022-09-23T09:23:22.503Z,101742.97
2022-09-23T09:25:50.425Z,101741.81
2022-09-23T09:28:19.280Z,101740.19
2022-09-23T09:30:48.640Z,101732.94
2022-09-23T09:33:17.332Z,101731.78
2022-09-23T09:35:53.486Z,101723.38
2022-09-23T09:38:21.917Z,101722.22
2022-09-23T09:40:49.487Z,101712.19
2022-09-23T09:43:23.351Z,101711.38
2022-09-23T09:45:59.142Z,101703.78
2022-09-23T09:48:27.938Z,101700.97
2022-09-23T09:50:56.750Z,101697.38
2022-09-23T09:53:25.710Z,101700.97
2022-09-23T09:56:04.334Z,101695.38
2022-09-23T09:58:34.490Z,101686.97
2022-09-23T10:01:02.330Z,101691.41
2022-09-23T10:03:34.449Z,101685.81
2022-09-23T10:06:03.332Z,101691.41
2022-09-23T10:08:34.821Z,101685.81
2022-09-23T10:11:03.117Z,101685.81
2022-09-23T10:13:30.754Z,101680.22
2022-09-23T10:15:58.288Z,101680.22
2022-09-23T10:18:28.024Z,101676.25
2022-09-23T10:21:01.503Z,101681.84
2022-09-23T10:23:33.404Z,101681.03
2022-09-23T10:26:01.126Z,101680.22
2022-09-23T10:28:41.076Z,101680.22
2022-09-23T10:31:09.852Z,101675.44
2022-09-23T10:33:40.992Z,101667.03
2022-09-23T10:36:10.088Z,101665.88
2022-09-23T10:38:38.904Z,101665.88
2022-09-23T10:41:23.880Z,101673.44
2022-09-23T10:44:23.317Z,101673.44
2022-09-23T10:46:52.031Z,101671.47
2022-09-23T10:49:35.829Z,101666.72
2022-09-23T10:52:06.836Z,101665.06
2022-09-23T10:54:37.334Z,101666.72
2022-09-23T10:57:26.136Z,101665.88
2022-09-23T10:59:55.205Z,101661.13
2022-09-23T11:02:31.244Z,101661.94
2022-09-23T11:05:25.621Z,101653.84
2022-09-23T11:07:55.169Z,101658.31
2022-09-23T11:10:47.396Z,101641.53
2022-09-23T11:13:17.799Z,101638.72
2022-09-23T11:15:46.165Z,101645.94
2022-09-23T11:18:20.541Z,101634.75
2022-09-23T11:20:49.936Z,101621.91
2022-09-23T11:23:22.204Z,101624.72
2022-09-23T11:25:52.015Z,101626.34
2022-09-23T11:28:29.449Z,101611.53
2022-09-23T11:30:59.155Z,101615.16
2022-09-23T11:33:29.330Z,101603.97
2022-09-23T11:35:57.138Z,101606.75
2022-09-23T11:38:26.226Z,101606.75
2022-09-23T11:40:56.161Z,101600.34
2022-09-23T11:43:24.400Z,101601.16
2022-09-23T11:45:54.079Z,101589.97
2022-09-23T11:48:23.096Z,101606.75
2022-09-23T11:50:51.625Z,101584.38
2022-09-23T11:53:19.993Z,101589.97
2022-09-23T11:55:57.598Z,101584.38
2022-09-23T11:58:27.671Z,101578.75
2022-09-23T12:00:59.953Z,101581.56
2022-09-23T12:03:42.020Z,101573.16
2022-09-23T12:06:12.559Z,101561.97
2022-09-23T12:08:40.051Z,101565.59
2022-09-23T12:11:09.050Z,101564.75
2022-09-23T12:13:40.613Z,101553.56
2022-09-23T12:16:26.603Z,101556.38
2022-09-23T12:18:56.440Z,101556.38
2022-09-23T12:21:50.379Z,101552.41
2022-09-23T12:24:28.374Z,101550.75
2022-09-23T12:26:57.145Z,101550.75
2022-09-23T12:29:26.624Z,101545.97
2022-09-23T12:31:54.111Z,101545.97
2022-09-23T12:34:22.959Z,101538.41
2022-09-23T12:36:50.481Z,101539.56
2022-09-23T12:39:18.257Z,101541.19
2022-09-23T12:41:47.571Z,101537.59
2022-09-23T12:44:16.028Z,101533.97
2022-09-23T12:46:44.969Z,101528.38
2022-09-23T12:49:26.143Z,101523.59
2022-09-23T12:52:13.449Z,101521.16
2022-09-23T12:54:41.062Z,101528.38
2022-09-23T12:57:11.419Z,101522.78
2022-09-23T12:59:55.605Z,101519.97
2022-09-23T13:02:27.023Z,101517.16
2022-09-23T13:05:14.441Z,101517.16
2022-09-23T13:07:42.182Z,101508.78
2022-09-23T13:10:12.085Z,101505.97
2022-09-23T13:12:40.034Z,101490.00
2022-09-23T13:15:13.110Z,101507.59
2022-09-23T13:17:42.040Z,101493.59
2022-09-23T13:20:32.963Z,101485.22
2022-09-23T13:23:03.898Z,101479.59
2022-09-23T13:25:32.472Z,101478.78
2022-09-23T13:28:01.329Z,101478.78
2022-09-23T13:30:28.844Z,101477.97
2022-09-23T13:33:02.466Z,101472.38
2022-09-23T13:35:31.475Z,101468.41
2022-09-23T13:37:59.041Z,101468.41
2022-09-23T13:40:27.455Z,101460.00
2022-09-23T13:42:57.924Z,101458.03
2022-09-23T13:45:25.676Z,101462.81
2022-09-23T13:47:53.808Z,101455.59
2022-09-23T13:50:23.455Z,101440.41
2022-09-23T13:52:52.253Z,101434.81
2022-09-23T13:55:26.654Z,101438.78
2022-09-23T13:58:01.463Z,101438.78
2022-09-23T14:00:32.052Z,101429.22
2022-09-23T14:02:59.789Z,101429.22
2022-09-23T14:05:31.227Z,101420.38
2022-09-23T14:07:58.819Z,101429.22
2022-09-23T14:10:28.388Z,101423.63
2022-09-23T14:13:00.386Z,101427.22
2022-09-23T14:15:30.630Z,101428.41
2022-09-23T14:17:59.427Z,101420.81
2022-09-23T14:20:27.130Z,101418.03
2022-09-23T14:23:05.514Z,101419.19
2022-09-23T14:25:33.269Z,101415.22
2022-09-23T14:28:01.233Z,101412.41
2022-09-23T14:30:28.802Z,101406.81
2022-09-23T14:32:56.829Z,101407.63
2022-09-23T14:35:27.022Z,101409.63
2022-09-23T14:38:12.644Z,101406.00
2022-09-23T14:40:50.782Z,101401.22
2022-09-23T14:43:19.110Z,101410.44
2022-09-23T14:45:47.367Z,101399.59
2022-09-23T14:48:15.467Z,101402.84
2022-09-23T14:50:48.385Z,101401.22
2022-09-23T14:53:32.853Z,101397.59
2022-09-23T14:56:10.569Z,101390.03
2022-09-23T14:58:41.962Z,101397.25
2022-09-23T15:01:23.860Z,101394.00
2022-09-23T15:03:51.491Z,101395.63
2022-09-23T15:06:19.771Z,101390.03
2022-09-23T15:08:47.244Z,101389.22
2022-09-23T15:11:16.054Z,101378.81
2022-09-23T15:13:44.206Z,101384.44
2022-09-23T15:16:11.987Z,101384.44
2022-09-23T15:18:39.563Z,101377.19
2022-09-23T15:21:08.841Z,101378.81
2022-09-23T15:23:36.674Z,101373.22
2022-09-23T15:26:06.061Z,101378.00
2022-09-23T15:28:34.862Z,101372.41
2022-09-23T15:31:03.135Z,101373.22
2022-09-23T15:33:30.676Z,101368.44
2022-09-23T15:35:58.473Z,101367.63
2022-09-23T15:38:26.882Z,101367.63
2022-09-23T15:40:54.935Z,101373.22
2022-09-23T15:43:23.342Z,101367.63
2022-09-23T15:45:53.150Z,101373.22
2022-09-23T15:48:22.815Z,101367.63
2022-09-23T15:50:50.631Z,101366.00
2022-09-23T15:53:19.016Z,101367.63
2022-09-23T15:55:46.684Z,101364.81
2022-09-23T15:58:14.398Z,101364.47
2022-09-23T16:00:42.089Z,101372.06
2022-09-23T16:03:11.511Z,101361.22
2022-09-23T16:05:39.846Z,101362.03
2022-09-23T16:08:09.219Z,101367.63
2022-09-23T16:10:37.795Z,101367.63
2022-09-23T16:13:06.422Z,101364.81
2022-09-23T16:15:34.318Z,101362.03
2022-09-23T16:18:02.025Z,101361.22
2022-09-23T16:20:31.171Z,101366.81
2022-09-23T16:22:59.504Z,101356.44
2022-09-23T16:25:28.077Z,101363.66
2022-09-23T16:27:56.391Z,101362.84
2022-09-23T16:30:24.054Z,101352.47
2022-09-23T16:32:51.937Z,101346.03
2022-09-23T16:35:20.490Z,101350.84
2022-09-23T16:37:49.552Z,101345.25
2022-09-23T16:40:19.847Z,101340.44
2022-09-23T16:42:47.763Z,101358.06
2022-09-23T16:45:16.344Z,101351.28
2022-09-23T16:47:45.269Z,101353.63
2022-09-23T16:50:12.826Z,101352.47
2022-09-23T16:52:40.613Z,101341.25
2022-09-23T16:55:10.304Z,101335.66
2022-09-23T16:57:38.258Z,101335.66
2022-09-23T17:00:23.981Z,101341.25
2022-09-23T17:03:17.623Z,101341.25
2022-09-23T17:05:46.780Z,101342.06
2022-09-23T17:08:14.853Z,101342.88
2022-09-23T17:10:44.021Z,101337.28
2022-09-23T17:13:11.981Z,101331.69
2022-09-23T17:15:39.620Z,101330.06
2022-09-23T17:18:07.647Z,101336.47
2022-09-23T17:20:35.595Z,101335.66
2022-09-23T17:23:04.790Z,101342.06
2022-09-23T17:25:33.938Z,101334.50
2022-09-23T17:28:03.417Z,101338.47
2022-09-23T17:30:30.979Z,101341.25
2022-09-23T17:32:58.744Z,101337.28
2022-09-23T17:35:26.637Z,101331.69
2022-09-23T17:37:54.456Z,101337.28
2022-09-23T17:40:22.286Z,101337.28
2022-09-23T17:42:50.264Z,101342.88
2022-09-23T17:45:19.806Z,101340.09
2022-09-23T17:47:54.774Z,101326.09
2022-09-23T17:50:22.758Z,101336.47
2022-09-23T17:52:50.354Z,101331.69
2022-09-23T17:55:18.257Z,101341.72
2022-09-23T17:57:45.833Z,101340.09
2022-09-23T18:00:13.932Z,101338.91
2022-09-23T18:02:42.822Z,101337.28
2022-09-23T18:05:10.616Z,101337.28
2022-09-23T18:07:38.408Z,101340.09
2022-09-23T18:14:07.310Z,101342.88
2022-09-23T18:16:35.583Z,101338.69
2022-09-23T18:19:04.822Z,101342.88
2022-09-23T18:29:38.855Z,101342.88
2022-09-23T18:32:08.254Z,101338.91
2022-09-23T18:34:40.016Z,101338.91
2022-09-23T18:37:15.245Z,101331.69
2022-09-23T18:39:43.547Z,101325.19
2022-09-23T18:42:11.859Z,101327.72
2022-09-23T18:44:40.629Z,101330.53
2022-09-23T18:47:08.312Z,101328.88
2022-09-23T18:49:53.491Z,101333.31
2022-09-23T18:52:22.737Z,101325.75
2022-09-23T18:54:54.864Z,101337.28
2022-09-23T18:57:23.154Z,101326.91
2022-09-23T18:59:51.303Z,101326.91
2022-09-23T19:02:19.260Z,101331.34
2022-09-23T19:04:46.915Z,101320.50
2022-09-23T19:07:15.416Z,101326.09
2022-09-23T19:09:44.836Z,101324.09
2022-09-23T19:12:12.809Z,101321.31
2022-09-23T19:14:45.018Z,101320.50
2022-09-23T19:17:15.882Z,101327.72
2022-09-23T19:19:45.992Z,101326.09
2022-09-23T19:22:13.861Z,101321.31
2022-09-23T19:24:41.507Z,101323.78
2022-09-23T19:27:19.786Z,101322.97
2022-09-23T19:29:48.259Z,101320.50
2022-09-23T19:32:16.394Z,101316.53
2022-09-23T19:34:50.659Z,101316.53
2022-09-23T19:37:19.496Z,101314.88
2022-09-23T19:39:48.554Z,101319.31
2022-09-23T19:42:18.537Z,101316.53
2022-09-23T19:44:47.519Z,101323.28
2022-09-23T19:47:17.755Z,101322.13
2022-09-23T19:49:46.429Z,101322.13
2022-09-23T19:52:14.060Z,101316.53
2022-09-23T19:54:42.423Z,101320.50
2022-09-23T19:57:10.188Z,101322.13
2022-09-23T19:59:40.306Z,101320.50
2022-09-23T20:02:10.042Z,101310.91
2022-09-23T20:04:38.252Z,101312.09
2022-09-23T20:07:05.736Z,101305.31
2022-09-23T20:09:34.296Z,101318.19
2022-09-23T20:12:02.426Z,101313.72
2022-09-23T20:14:31.296Z,101309.28
2022-09-23T20:17:01.968Z,101307.31
2022-09-23T20:19:30.815Z,101306.16
2022-09-23T20:22:18.505Z,101305.31
2022-09-23T20:24:46.087Z,101307.31
2022-09-23T20:27:12.727Z,101306.50
2022-09-23T20:29:40.350Z,101305.31
2022-09-23T20:32:09.917Z,101298.91
2022-09-23T20:34:38.196Z,101293.31
2022-09-23T20:37:06.122Z,101296.94
2022-09-23T20:39:34.399Z,101285.72
2022-09-23T20:42:02.703Z,101292.97
2022-09-23T20:44:30.250Z,101284.34
2022-09-23T20:46:58.112Z,101286.91
2022-09-23T20:49:27.049Z,101294.13
2022-09-23T20:51:54.775Z,101294.13
2022-09-23T20:54:23.243Z,101294.13
2022-09-23T20:56:50.945Z,101286.91
2022-09-23T20:59:18.559Z,101292.50
2022-09-23T21:01:47.845Z,101292.50
2022-09-23T21:04:15.499Z,101287.72
2022-09-23T21:06:44.485Z,101287.72
2022-09-23T21:09:12.440Z,101277.31
2022-09-23T21:11:40.393Z,101277.31
2022-09-23T21:14:08.331Z,101272.91
2022-09-23T21:16:36.168Z,101271.72
2022-09-23T21:19:04.000Z,101277.31
2022-09-23T21:21:32.354Z,101277.31
2022-09-23T21:24:23.850Z,101270.09
2022-09-23T21:26:50.631Z,101272.91
2022-09-23T21:29:19.537Z,101270.91
2022-09-23T21:31:49.583Z,101268.94
2022-09-23T21:34:17.601Z,101263.34
2022-09-23T21:36:46.263Z,101266.97
2022-09-23T21:39:15.406Z,101265.31
2022-09-23T21:41:42.898Z,101266.97
2022-09-23T21:44:10.555Z,101258.91
2022-09-23T21:46:38.885Z,101256.09
2022-09-23T21:49:06.601Z,101262.50
2022-09-23T21:51:40.116Z,101256.91
2022-09-23T21:54:08.942Z,101249.34
2022-09-23T21:56:38.074Z,101261.72
2022-09-23T21:59:05.648Z,101259.72
2022-09-23T22:01:35.284Z,101254.13
2022-09-23T22:04:08.738Z,101252.13
2022-09-23T22:06:38.338Z,101259.72
2022-09-23T22:09:08.965Z,101259.72
2022-09-23T22:11:55.908Z,101254.13
2022-09-23T22:14:26.107Z,101258.91
2022-09-23T22:16:57.560Z,101253.31
2022-09-23T22:19:25.952Z,101249.34
2022-09-23T22:21:54.076Z,101254.13
2022-09-23T22:24:21.744Z,101249.34
2022-09-23T22:26:51.250Z,101246.53
2022-09-23T22:29:36.266Z,101246.53
2022-09-23T22:32:33.562Z,101243.72
2022-09-23T22:35:01.078Z,101243.72
2022-09-23T22:37:30.422Z,101237.00
2022-09-23T22:39:58.072Z,101238.13
2022-09-23T22:42:27.641Z,101237.31
2022-09-23T22:44:56.505Z,101230.91
2022-09-23T22:47:24.741Z,101229.75
2022-09-23T22:49:54.983Z,101238.13
2022-09-23T22:52:24.699Z,101231.72
2022-09-23T22:54:52.396Z,101233.38
2022-09-23T22:57:20.340Z,101233.38
2022-09-23T22:59:49.161Z,101238.13
2022-09-23T23:46:10.736Z,101201.75
2022-09-23T23:48:38.717Z,101204.53
2022-09-23T23:51:06.760Z,101210.13
2022-09-23T23:53:35.021Z,101206.88
2022-09-23T23:56:02.940Z,101204.53
2022-09-23T23:58:30.534Z,101197.31
